MAPA DE AEROPUERTO

INFORMACIÓN METAR y TAF


Deprecated: The each() function is deprecated. This message will be suppressed on further calls in /home/customer/www/clickair-va.com/public_html/VAM/vam/helpers/get_metar.php on line 20
METAR FOR GCHI
ADDS - METARS form results

(0447 UTC 25 May 2022)
Data provider http://aviationweather.gov/metar/data/
 
METAR text: GCHI 250430Z AUTO 36011KT 330V040 9999 FEW043 SCT049 20/15 Q1018
Conditions at: GCHI (HIERRO AIRPORT , ES) observed 0430 UTC 25 May 2022
Temperature: 20.0°C (68°F)
Dewpoint: 15.0°C (59°F) [RH = 73%]
Pressure (altimeter): 30.06 inches Hg (1018.0 mb)
Winds: from the N (360 degrees) at 13 MPH (11 knots; 5.7 m/s)
Visibility: 6 or more miles (10+ km)
Ceiling: at least 12,000 feet AGL
Clouds: few clouds at 4300 feet AGL
scattered clouds at 4900 feet AGL
Weather: no significant weather observed at this time

METAR text: GCHI 250400Z AUTO 02012KT 340V050 9999 FEW028 BKN042 BKN049 20/15 Q1018
Conditions at: GCHI (HIERRO AIRPORT , ES) observed 0400 UTC 25 May 2022
Temperature: 20.0°C (68°F)
Dewpoint: 15.0°C (59°F) [RH = 73%]
Pressure (altimeter): 30.06 inches Hg (1018.0 mb)
Winds: from the NNE (20 degrees) at 14 MPH (12 knots; 6.2 m/s)
Visibility: 6 or more miles (10+ km)
Ceiling: 4200 feet AGL
Clouds: few clouds at 2800 feet AGL
broken clouds at 4200 feet AGL
broken clouds at 4900 feet AGL
Weather: no significant weather observed at this time

Forecast for: GCHI (HIERRO AIRPORT , ES)
Text: TAF GCHI 250200Z 2503/2603 03015KT 9999 SCT030 TX24/2514Z TN20/2506Z
Forecast period: 0300 UTC 25 May 2022 to 0300 UTC 26 May 2022
Forecast type: FROM: standard forecast or significant change
Winds: from the NNE (30 degrees) at 17 MPH (15 knots; 7.7 m/s)
Visibility: 6 or more miles (10+ km)
Ceiling: at least 12,000 feet AGL
Clouds: scattered clouds at 3000 feet AGL
Weather: no significant weather forecast for this period